Time;durP1;ratioP1;P1;durP2;ratioP2;P2;SDS_P1;SDS_P2;PMS_P1;PMS_P2;Temp;Humidity;BMP_temperature;BMP_pressure;BME280_temperature;BME280_humidity;BME280_pressure;Samples;Min_cycle;Max_cycle;Signal;HPM_P1;HPM_P2
2023/03/09 00:02:20;;;;;;;28.27;23.67;;;;;;;-0.04;100.00;98908.25;5264326;28;20044;-74
2023/03/09 00:04:52;;;;;;;29.90;24.80;;;;;;;-0.02;100.00;98897.16;5263959;28;20143;-73
2023/03/09 00:07:23;;;;;;;29.07;24.47;;;;;;;0.02;100.00;98884.31;5263304;28;20025;-73
2023/03/09 00:09:55;;;;;;;28.97;24.67;;;;;;;0.01;100.00;98874.94;5263965;28;20069;-73
2023/03/09 00:12:27;;;;;;;27.30;23.30;;;;;;;0.07;100.00;98875.78;5263786;28;20041;-74
2023/03/09 00:14:58;;;;;;;28.45;24.25;;;;;;;0.02;100.00;98894.56;5262684;28;20041;-74
2023/03/09 00:17:29;;;;;;;34.10;26.90;;;;;;;0.03;100.00;98883.47;5262987;28;20362;-73
2023/03/09 00:20:15;;;;;;;35.13;29.40;;;;;;;-0.03;100.00;98840.81;5263481;28;20029;-72
2023/03/09 00:22:48;;;;;;;34.47;26.98;;;;;;;-0.03;100.00;98874.09;5262639;28;20485;-72
2023/03/09 00:25:21;;;;;;;36.70;29.33;;;;;;;-0.08;100.00;98906.53;5262610;28;20031;-73
2023/03/09 00:27:52;;;;;;;;;;;;;;;0.05;100.00;98920.19;5263884;28;20071;-73
2023/03/09 00:30:24;;;;;;;34.28;27.52;;;;;;;-0.02;100.00;98922.78;5262966;28;19912;-72
2023/03/09 00:32:55;;;;;;;54.17;35.57;;;;;;;0.05;100.00;98922.75;5263372;28;20484;-72
2023/03/09 00:35:26;;;;;;;42.13;29.47;;;;;;;0.01;100.00;98932.16;5263318;28;20036;-72
2023/03/09 00:37:58;;;;;;;61.03;39.10;;;;;;;-0.01;100.00;98939.00;5263638;28;20090;-73
2023/03/09 00:40:29;;;;;;;32.60;26.00;;;;;;;0.02;100.00;98944.13;5263928;28;20376;-72
2023/03/09 00:43:01;;;;;;;32.27;25.50;;;;;;;-0.01;100.00;98936.44;5262716;28;20060;-73
2023/03/09 00:45:32;;;;;;;108.07;56.57;;;;;;;0.07;100.00;98947.53;5263832;28;20106;-73
2023/03/09 00:48:04;;;;;;;35.70;27.47;;;;;;;0.06;100.00;98945.81;5263123;28;20029;-72
2023/03/09 00:50:35;;;;;;;43.53;31.80;;;;;;;0.00;100.00;98948.41;5263593;28;20120;-72
2023/03/09 00:53:07;;;;;;;76.27;44.80;;;;;;;0.03;100.00;98955.22;5262968;28;20040;-73
2023/03/09 00:55:39;;;;;;;39.10;28.83;;;;;;;0.05;100.00;98951.81;5263149;28;20044;-73
2023/03/09 00:58:10;;;;;;;38.27;30.47;;;;;;;0.04;100.00;98951.81;5263165;28;20397;-73
2023/03/09 01:00:42;;;;;;;35.03;27.93;;;;;;;0.00;100.00;98966.31;5263349;28;20082;-73
2023/03/09 01:03:13;;;;;;;32.37;25.00;;;;;;;0.01;100.00;98975.69;5262583;28;20036;-72
2023/03/09 01:05:44;;;;;;;30.60;25.73;;;;;;;-0.02;100.00;98971.44;5262767;28;20104;-74
2023/03/09 01:08:16;;;;;;;37.67;28.80;;;;;;;-0.01;100.00;98980.81;5262712;28;20037;-72
2023/03/09 01:10:47;;;;;;;37.63;30.43;;;;;;;0.03;100.00;98996.19;5262749;28;20469;-73
2023/03/09 01:13:19;;;;;;;36.07;29.43;;;;;;;0.01;100.00;99023.53;5262403;28;20031;-73
2023/03/09 01:15:50;;;;;;;33.17;26.10;;;;;;;-0.01;100.00;99028.66;5262640;28;20075;-72
2023/03/09 01:18:22;;;;;;;33.63;25.37;;;;;;;0.08;100.00;99031.22;5262168;28;20110;-72
2023/03/09 01:20:53;;;;;;;28.03;23.20;;;;;;;0.04;100.00;99011.56;5262444;28;20040;-73
2023/03/09 01:23:25;;;;;;;40.70;30.97;;;;;;;0.00;100.00;99020.13;5262577;28;20044;-72
2023/03/09 01:25:56;;;;;;;31.37;25.80;;;;;;;0.06;100.00;99021.81;5262235;28;20052;-72
2023/03/09 01:28:28;;;;;;;29.73;24.73;;;;;;;0.06;100.00;99024.38;5262308;28;20299;-71
2023/03/09 01:30:59;;;;;;;36.10;28.13;;;;;;;0.09;100.00;99027.78;5262403;28;20469;-73
2023/03/09 01:33:30;;;;;;;34.77;26.07;;;;;;;0.11;100.00;99044.03;5262410;28;20090;-72
2023/03/09 01:36:07;;;;;;;30.90;23.93;;;;;;;0.08;100.00;99050.84;5262456;28;20044;-73
2023/03/09 01:38:39;;;;;;;35.67;27.85;;;;;;;0.11;100.00;99046.59;5266465;28;20171;-72
2023/03/09 01:41:12;;;;;;;29.97;23.23;;;;;;;0.11;100.00;99045.72;5266604;28;20488;-72
2023/03/09 01:43:49;;;;;;;35.03;27.85;;;;;;;0.15;100.00;99050.88;5266215;28;20472;-72
2023/03/09 01:46:28;;;;;;;30.80;24.15;;;;;;;0.17;100.00;99050.88;5265994;28;20025;-72
2023/03/09 01:49:23;;;;;;;33.83;27.65;;;;;;;0.18;100.00;99048.31;5266312;28;20025;-74
2023/03/09 01:52:33;;;;;;;33.15;26.27;;;;;;;0.17;100.00;99050.88;5266431;28;20025;-73
2023/03/09 01:55:10;;;;;;;37.13;29.27;;;;;;;0.20;100.00;99056.00;5266492;28;20036;-73
2023/03/09 01:58:09;;;;;;;31.63;25.52;;;;;;;0.28;100.00;99068.84;5265866;28;20040;-73
2023/03/09 02:00:44;;;;;;;33.15;26.38;;;;;;;0.18;100.00;99068.81;5258915;28;20071;-73
2023/03/09 02:03:21;;;;;;;28.25;23.58;;;;;;;0.18;100.00;99080.78;5268055;28;20135;-73
2023/03/09 02:05:58;;;;;;;31.17;24.67;;;;;;;0.23;100.00;99089.31;5265689;28;20029;-73
2023/03/09 02:08:31;;;;;;;32.15;25.60;;;;;;;0.15;100.00;99089.31;5266050;28;20025;-74
2023/03/09 02:11:07;;;;;;;26.48;22.48;;;;;;;0.15;100.00;99088.47;5265871;28;20037;-73
2023/03/09 02:13:48;;;;;;;30.42;23.60;;;;;;;0.20;100.00;99086.75;5265889;28;20058;-73
2023/03/09 02:16:19;;;;;;;30.55;23.77;;;;;;;0.21;100.00;99083.34;5265443;28;20021;-73
2023/03/09 02:18:51;;;;;;;31.57;24.87;;;;;;;0.18;100.00;99073.94;5247976;28;20047;-73
2023/03/09 02:21:31;;;;;;;29.53;25.50;;;;;;;0.17;100.00;99068.81;5265602;28;20077;-74
2023/03/09 02:24:23;;;;;;;33.03;26.35;;;;;;;0.21;100.00;99075.66;5265584;28;20025;-73
2023/03/09 02:26:59;;;;;;;29.90;24.87;;;;;;;0.18;100.00;99076.50;5265584;28;20112;-73
2023/03/09 02:29:31;;;;;;;34.60;26.00;;;;;;;0.17;100.00;99079.06;5265623;28;20492;-73
2023/03/09 02:32:02;;;;;;;29.87;24.43;;;;;;;0.26;100.00;99081.66;5265525;28;20056;-73
2023/03/09 02:34:34;;;;;;;29.07;24.13;;;;;;;0.23;100.00;99086.75;5265289;28;20057;-73
2023/03/09 02:37:21;;;;;;;32.67;25.93;;;;;;;0.23;100.00;99099.56;5265398;28;20393;-72
2023/03/09 02:39:56;;;;;;;32.38;25.75;;;;;;;0.13;100.00;99108.94;5265103;28;20126;-73
2023/03/09 02:42:28;;;;;;;33.30;26.33;;;;;;;0.14;100.00;99112.34;5265241;28;20060;-73
2023/03/09 02:45:00;;;;;;;33.03;27.83;;;;;;;0.20;100.00;99107.25;5264704;28;20110;-73
2023/03/09 02:47:31;;;;;;;38.47;29.27;;;;;;;0.24;100.00;99105.53;5264991;28;20103;-73
2023/03/09 02:50:03;;;;;;;35.93;28.43;;;;;;;0.10;100.00;99105.53;5267423;28;20037;-73
2023/03/09 02:52:34;;;;;;;34.93;26.77;;;;;;;0.06;100.00;99104.66;5288807;28;20025;-73
2023/03/09 02:55:07;;;;;;;38.57;28.70;;;;;;;0.10;100.00;99105.53;5280056;28;20037;-71
2023/03/09 02:57:40;;;;;;;36.97;28.15;;;;;;;0.12;100.00;99119.19;5268925;28;20032;-72
2023/03/09 03:00:14;;;;;;;38.17;28.15;;;;;;;0.15;100.00;99108.97;5265479;28;20086;-72
2023/03/09 03:02:45;;;;;;;36.42;28.33;;;;;;;0.11;100.00;99102.97;5265106;28;20055;-73
2023/03/09 03:05:17;;;;;;;37.87;28.77;;;;;;;0.18;100.00;99097.00;5264836;28;20411;-73
2023/03/09 03:07:48;;;;;;;38.00;28.97;;;;;;;0.15;100.00;99102.13;5265130;28;20522;-73
2023/03/09 03:10:19;;;;;;;39.10;28.60;;;;;;;0.22;100.00;99113.22;5264956;28;20059;-73
2023/03/09 03:12:51;;;;;;;36.23;28.30;;;;;;;0.23;100.00;99106.41;5264936;28;20071;-73
2023/03/09 03:15:22;;;;;;;38.17;27.97;;;;;;;0.20;100.00;99109.81;5263710;28;20055;-73
2023/03/09 03:17:54;;;;;;;39.37;29.50;;;;;;;0.23;100.00;99108.97;5264104;28;20032;-73
2023/03/09 03:20:25;;;;;;;38.07;27.97;;;;;;;0.16;100.00;99115.78;5264819;28;20052;-73
2023/03/09 03:22:57;;;;;;;36.67;27.07;;;;;;;0.17;100.00;99112.38;5264833;28;20052;-73
2023/03/09 03:25:28;;;;;;;35.70;27.33;;;;;;;0.14;100.00;99118.31;5264639;28;20025;-73
2023/03/09 03:27:59;;;;;;;38.13;27.30;;;;;;;0.14;100.00;99125.16;5264805;28;20029;-73
2023/03/09 03:30:31;;;;;;;39.43;29.10;;;;;;;0.16;100.00;99136.28;5264542;28;20055;-73
2023/03/09 03:33:03;;;;;;;37.87;27.87;;;;;;;0.22;100.00;99127.75;5262971;28;20488;-73
2023/03/09 03:35:34;;;;;;;39.97;29.77;;;;;;;0.18;100.00;99149.97;5264413;28;20146;-73
2023/03/09 03:38:05;;;;;;;37.10;29.10;;;;;;;0.14;100.00;99171.28;5264308;28;20484;-73
2023/03/09 03:40:37;;;;;;;47.43;33.07;;;;;;;0.15;100.00;99190.94;5263997;28;20533;-73
2023/03/09 03:43:08;;;;;;;43.33;33.20;;;;;;;0.16;100.00;99190.09;5263985;28;20114;-71
2023/03/09 03:45:39;;;;;;;41.90;30.67;;;;;;;0.22;100.00;99190.09;5263957;28;20434;-72
2023/03/09 03:48:11;;;;;;;42.27;31.27;;;;;;;0.23;100.00;99186.72;5263628;28;20029;-72
2023/03/09 03:50:42;;;;;;;46.27;31.87;;;;;;;0.25;100.00;99186.72;5264221;28;20029;-73
2023/03/09 03:53:13;;;;;;;45.43;31.30;;;;;;;0.21;100.00;99190.97;5262844;28;20469;-72
2023/03/09 03:55:45;;;;;;;42.27;31.00;;;;;;;0.22;100.00;99182.41;5264118;28;20029;-75
2023/03/09 03:58:16;;;;;;;43.33;30.87;;;;;;;0.23;100.00;99176.47;5263934;28;20029;-73
2023/03/09 04:00:47;;;;;;;41.77;31.77;;;;;;;0.17;100.00;99189.25;5263010;28;20033;-72
2023/03/09 04:03:19;;;;;;;44.00;32.13;;;;;;;0.18;100.00;99185.84;5264092;28;20037;-72
2023/03/09 04:05:50;;;;;;;41.53;31.67;;;;;;;0.20;100.00;99185.84;5263772;28;20098;-72
2023/03/09 04:08:22;;;;;;;44.63;34.03;;;;;;;0.15;100.00;99185.81;5263773;28;20052;-72
2023/03/09 04:10:53;;;;;;;47.67;33.07;;;;;;;0.18;100.00;99185.84;5263446;28;20040;-73
2023/03/09 04:13:24;;;;;;;47.40;33.57;;;;;;;0.21;100.00;99193.53;5263604;28;20151;-72
2023/03/09 04:15:56;;;;;;;48.80;34.53;;;;;;;0.16;100.00;99197.75;5263634;28;20461;-72
2023/03/09 04:18:27;;;;;;;49.47;34.30;;;;;;;0.16;100.00;99208.03;5263075;28;20033;-73
2023/03/09 04:20:58;;;;;;;50.97;34.90;;;;;;;0.15;100.00;99212.28;5263270;28;20053;-72
2023/03/09 04:23:30;;;;;;;50.50;36.33;;;;;;;0.11;100.00;99213.16;5263296;28;20060;-72
2023/03/09 04:26:04;;;;;;;47.90;34.63;;;;;;;0.19;100.00;99218.28;5263084;28;20029;-72
2023/03/09 04:28:35;;;;;;;52.97;36.40;;;;;;;0.18;100.00;99219.16;5262130;28;20461;-72
2023/03/09 04:31:06;;;;;;;51.43;35.33;;;;;;;0.23;100.00;99225.16;5262070;28;20036;-72
2023/03/09 04:33:42;;;;;;;56.03;38.13;;;;;;;0.22;100.00;99227.69;5243522;28;20037;-72
2023/03/09 04:36:13;;;;;;;51.88;35.70;;;;;;;0.23;100.00;99232.00;5241912;28;20381;-74
2023/03/09 04:38:45;;;;;;;53.37;37.90;;;;;;;0.22;100.00;99228.53;5241994;28;20041;-73
2023/03/09 04:41:16;;;;;;;54.27;37.47;;;;;;;0.24;100.00;99236.25;5240962;28;20041;-73
2023/03/09 04:43:47;;;;;;;54.37;37.50;;;;;;;0.19;100.00;99238.78;5242261;28;20033;-74
2023/03/09 04:46:19;;;;;;;56.97;37.47;;;;;;;0.22;100.00;99243.94;5242107;28;20029;-73
2023/03/09 04:48:50;;;;;;;57.33;37.47;;;;;;;0.17;100.00;99255.88;5241727;28;20045;-72
2023/03/09 04:51:22;;;;;;;59.50;39.97;;;;;;;0.15;100.00;99248.16;5240394;28;20032;-72
2023/03/09 04:53:53;;;;;;;55.57;38.03;;;;;;;0.15;100.00;99248.16;5241631;28;20485;-72
2023/03/09 04:56:24;;;;;;;54.80;38.43;;;;;;;0.14;100.00;99255.84;5241540;28;20029;-73
2023/03/09 04:58:56;;;;;;;60.43;39.27;;;;;;;0.08;100.00;99258.38;5240796;28;20116;-74
2023/03/09 05:01:27;;;;;;;54.80;35.43;;;;;;;0.16;100.00;99261.81;5240637;28;20039;-73
2023/03/09 05:03:59;;;;;;;60.50;39.87;;;;;;;0.18;100.00;99266.13;5238813;28;20088;-72
2023/03/09 05:06:30;;;;;;;57.60;39.13;;;;;;;0.21;100.00;99262.72;5241801;28;20033;-73
2023/03/09 05:09:03;;;;;;;64.00;40.70;;;;;;;0.17;100.00;99276.38;5241174;28;20034;-73
2023/03/09 05:11:34;;;;;;;61.78;39.47;;;;;;;0.21;100.00;99277.22;5241022;28;20029;-74
2023/03/09 05:14:06;;;;;;;59.47;39.33;;;;;;;0.22;100.00;99284.94;5241729;28;20391;-74
2023/03/09 05:16:37;;;;;;;67.67;39.93;;;;;;;0.21;100.00;99296.03;5241144;28;20084;-73
2023/03/09 05:19:09;;;;;;;62.13;41.77;;;;;;;0.20;100.00;99298.59;5241539;28;20040;-73
2023/03/09 05:21:41;;;;;;;65.40;41.92;;;;;;;0.25;100.00;99315.69;5241098;28;20049;-72
2023/03/09 05:24:13;;;;;;;67.20;44.00;;;;;;;0.25;100.00;99320.81;5241484;28;20523;-73
2023/03/09 05:26:44;;;;;;;60.83;41.17;;;;;;;0.28;100.00;99313.16;5241304;28;20029;-72
2023/03/09 05:29:16;;;;;;;58.97;40.23;;;;;;;0.25;100.00;99313.13;5241618;28;20087;-71
2023/03/09 05:31:47;;;;;;;66.17;40.80;;;;;;;0.22;100.00;99305.44;5241651;28;20033;-71
2023/03/09 05:34:19;;;;;;;66.23;42.83;;;;;;;0.20;100.00;99307.13;5241647;28;20038;-70
2023/03/09 05:36:50;;;;;;;64.00;41.33;;;;;;;0.23;100.00;99304.59;5241257;28;20056;-71
2023/03/09 05:39:22;;;;;;;67.77;41.67;;;;;;;0.28;100.00;99317.44;5257146;28;20508;-71
2023/03/09 05:41:53;;;;;;;73.47;44.13;;;;;;;0.18;100.00;99319.09;5241452;28;20485;-71
2023/03/09 05:44:25;;;;;;;72.80;46.77;;;;;;;0.23;100.00;99312.28;5244149;28;20113;-71
2023/03/09 05:46:57;;;;;;;66.87;45.03;;;;;;;0.20;100.00;99302.00;5265699;28;20119;-71
2023/03/09 05:49:30;;;;;;;70.28;45.20;;;;;;;0.18;100.00;99308.84;5270738;28;20076;-71
2023/03/09 05:52:02;;;;;;;71.85;44.22;;;;;;;0.19;100.00;99305.41;5262600;28;20064;-72
2023/03/09 05:54:33;;;;;;;70.17;45.73;;;;;;;0.20;100.00;99307.13;5262485;28;20084;-72
2023/03/09 05:57:05;;;;;;;69.40;45.70;;;;;;;0.20;100.00;99314.81;5261862;28;20112;-73
2023/03/09 05:59:36;;;;;;;75.73;46.93;;;;;;;0.14;100.00;99320.75;5262119;28;20029;-72
2023/03/09 06:02:07;;;;;;;68.40;44.60;;;;;;;0.17;100.00;99333.59;5262121;28;20033;-71
2023/03/09 06:04:39;;;;;;;67.73;44.00;;;;;;;0.24;100.00;99333.63;5262157;28;20543;-72
2023/03/09 06:07:10;;;;;;;72.50;44.90;;;;;;;0.22;100.00;99333.63;5262108;28;20037;-72
2023/03/09 06:09:41;;;;;;;72.67;45.37;;;;;;;0.28;100.00;99337.94;5262040;28;20073;-72
2023/03/09 06:12:13;;;;;;;71.37;47.03;;;;;;;0.22;100.00;99340.47;5262024;28;20075;-72
2023/03/09 06:14:48;;;;;;;72.97;45.93;;;;;;;0.27;100.00;99338.78;5262029;28;20097;-71
2023/03/09 06:17:20;;;;;;;69.20;43.08;;;;;;;0.31;100.00;99330.28;5261511;28;20362;-71
2023/03/09 06:19:52;;;;;;;69.20;45.90;;;;;;;0.33;100.00;99338.81;5262085;28;20044;-72
2023/03/09 06:22:23;;;;;;;72.47;45.25;;;;;;;0.32;100.00;99348.22;5261533;28;20053;-71
2023/03/09 06:24:55;;;;;;;72.77;44.83;;;;;;;0.35;100.00;99361.06;5263500;28;20045;-71
2023/03/09 06:27:26;;;;;;;72.27;46.00;;;;;;;0.30;100.00;99357.59;5264428;28;20033;-71
2023/03/09 06:29:57;;;;;;;70.50;43.20;;;;;;;0.30;100.00;99367.84;5265460;28;20037;-71
2023/03/09 06:32:32;;;;;;;69.37;44.93;;;;;;;0.41;100.00;99365.34;5264388;28;20064;-72
2023/03/09 06:35:04;;;;;;;70.63;44.88;;;;;;;0.45;100.00;99371.34;5265160;28;20066;-72
2023/03/09 06:37:35;;;;;;;75.67;46.20;;;;;;;0.47;100.00;99362.81;5265050;28;20416;-71
2023/03/09 06:40:11;;;;;;;75.20;47.53;;;;;;;0.49;100.00;99370.53;5265149;28;20754;-71
2023/03/09 06:42:43;;;;;;;71.75;45.75;;;;;;;0.52;100.00;99385.94;5264407;28;20037;-72
2023/03/09 06:45:14;;;;;;;70.65;44.10;;;;;;;0.54;100.00;99391.91;5265194;28;20079;-71
2023/03/09 06:47:46;;;;;;;67.37;44.97;;;;;;;0.54;100.00;99395.31;5264857;28;20083;-72
2023/03/09 06:50:17;;;;;;;76.63;45.67;;;;;;;0.51;100.00;99387.59;5264944;28;20040;-72
2023/03/09 06:52:49;;;;;;;68.80;43.23;;;;;;;0.47;100.00;99406.41;5265172;28;20093;-71
2023/03/09 06:55:20;;;;;;;69.43;44.87;;;;;;;0.44;100.00;99402.97;5264907;28;20029;-71
2023/03/09 06:57:52;;;;;;;67.13;43.47;;;;;;;0.48;100.00;99417.50;5265025;28;20087;-71
2023/03/09 07:00:23;;;;;;;72.67;46.90;;;;;;;0.51;100.00;99420.09;5264654;28;20031;-71
2023/03/09 07:02:56;;;;;;;70.97;44.57;;;;;;;0.56;100.00;99418.41;5265073;28;20497;-71
2023/03/09 07:05:27;;;;;;;68.53;42.58;;;;;;;0.57;100.00;99429.53;5263397;28;20040;-70
2023/03/09 07:07:58;;;;;;;66.37;43.67;;;;;;;0.54;100.00;99443.19;5263786;28;20029;-71
2023/03/09 07:10:30;;;;;;;68.20;44.00;;;;;;;0.57;100.00;99447.50;5264833;28;20469;-71
2023/03/09 07:13:01;;;;;;;70.43;44.03;;;;;;;0.58;100.00;99447.50;5264997;28;20464;-72
2023/03/09 07:15:33;;;;;;;70.27;43.13;;;;;;;0.53;100.00;99455.16;5264795;28;20125;-71
2023/03/09 07:18:04;;;;;;;64.10;42.37;;;;;;;0.49;100.00;99470.50;5264230;28;20082;-72
2023/03/09 07:20:38;;;;;;;65.87;43.63;;;;;;;0.47;100.00;99479.91;5264689;28;20048;-72
2023/03/09 07:23:11;;;;;;;66.93;43.67;;;;;;;0.49;100.00;99483.34;5262767;28;20044;-72
2023/03/09 07:25:42;;;;;;;;;;;;;;;0.63;100.00;99481.72;5264822;28;20476;-71
2023/03/09 07:28:14;;;;;;;72.80;42.40;;;;;;;0.63;100.00;99480.84;5264494;28;19962;-71
2023/03/09 07:30:45;;;;;;;66.87;43.83;;;;;;;0.67;100.00;99488.56;5264361;28;20537;-72
2023/03/09 07:33:17;;;;;;;68.77;44.87;;;;;;;0.74;100.00;99497.16;5264328;28;20119;-71
2023/03/09 07:35:48;;;;;;;63.37;42.77;;;;;;;0.72;100.00;99489.47;5264098;28;20045;-72
2023/03/09 07:38:20;;;;;;;64.90;42.37;;;;;;;0.79;100.00;99494.63;5264113;28;20039;-72
2023/03/09 07:40:51;;;;;;;67.50;43.33;;;;;;;0.84;100.00;99504.09;5263213;28;20040;-73
2023/03/09 07:43:22;;;;;;;64.73;43.43;;;;;;;0.99;100.00;99517.84;5264088;28;20029;-72
2023/03/09 07:45:54;;;;;;;64.23;40.57;;;;;;;0.94;100.00;99522.94;5262781;28;20036;-72
2023/03/09 07:48:25;;;;;;;66.80;43.13;;;;;;;0.93;100.00;99525.50;5263626;28;20392;-72
2023/03/09 07:50:58;;;;;;;63.33;40.93;;;;;;;0.88;100.00;99528.88;5263607;28;20492;-72
2023/03/09 07:53:30;;;;;;;61.78;40.47;;;;;;;0.97;100.00;99527.25;5263913;28;20112;-72
2023/03/09 07:56:04;;;;;;;61.63;42.22;;;;;;;0.98;100.00;99528.94;5262632;28;20514;-72
2023/03/09 07:58:38;;;;;;;58.70;39.00;;;;;;;1.06;100.00;99527.28;5263959;28;20469;-72
2023/03/09 08:01:16;;;;;;;59.05;40.50;;;;;;;1.08;100.00;99530.75;5263854;28;20484;-71
2023/03/09 08:03:48;;;;;;;62.17;41.58;;;;;;;1.22;100.00;99529.09;5263812;28;20082;-72
2023/03/09 08:06:19;;;;;;;57.70;37.87;;;;;;;1.27;100.00;99529.09;5262425;28;20033;-70
2023/03/09 08:08:51;;;;;;;57.53;39.13;;;;;;;1.32;100.00;99539.41;5263620;28;20037;-71
2023/03/09 08:11:23;;;;;;;56.33;39.87;;;;;;;1.37;100.00;99543.72;5263873;28;20089;-71
2023/03/09 08:13:54;;;;;;;58.58;39.45;;;;;;;1.49;100.00;99553.16;5263509;28;20029;-71
2023/03/09 08:16:25;;;;;;;60.47;39.47;;;;;;;1.47;100.00;99538.63;5263560;28;20420;-71
2023/03/09 08:18:57;;;;;;;60.73;39.10;;;;;;;1.56;100.00;99557.50;5262813;28;20487;-71
2023/03/09 08:21:28;;;;;;;56.67;37.17;;;;;;;1.56;100.00;99567.78;5262093;28;20384;-70
2023/03/09 08:24:00;;;;;;;53.87;35.87;;;;;;;1.59;100.00;99564.34;5263361;28;20044;-71
2023/03/09 08:26:31;;;;;;;56.60;38.73;;;;;;;1.48;100.00;99561.72;5263021;28;20059;-71
2023/03/09 08:29:03;;;;;;;56.03;36.80;;;;;;;1.54;100.00;99555.75;5264027;28;20075;-72
2023/03/09 08:31:35;;;;;;;53.10;36.53;;;;;;;1.62;100.00;99565.19;5263336;28;20035;-71
2023/03/09 08:34:07;;;;;;;60.22;37.78;;;;;;;1.76;100.00;99567.84;5262081;28;20040;-72
2023/03/09 08:36:38;;;;;;;54.27;38.57;;;;;;;1.89;100.00;99584.16;5269639;28;20029;-72
2023/03/09 08:39:10;;;;;;;54.60;37.97;;;;;;;1.83;100.00;99581.56;5266492;28;20116;-71
2023/03/09 08:41:41;;;;;;;55.00;37.60;;;;;;;1.85;100.00;99594.41;5273342;28;20063;-71
2023/03/09 08:44:12;;;;;;;57.27;37.37;;;;;;;1.88;100.00;99597.84;5271743;28;20036;-71
2023/03/09 08:46:44;;;;;;;48.77;33.97;;;;;;;1.77;100.00;99602.97;5267493;28;20033;-71
2023/03/09 08:49:15;;;;;;;51.60;35.97;;;;;;;1.85;100.00;99589.28;5263584;28;20060;-71
2023/03/09 08:51:48;;;;;;;55.03;36.87;;;;;;;2.07;100.00;99583.34;5263683;28;20070;-72
2023/03/09 08:54:19;;;;;;;;;;;;;;;2.48;100.00;99604.84;5263540;28;20060;-72
2023/03/09 08:56:51;;;;;;;53.03;34.45;;;;;;;2.44;100.00;99609.13;5262885;28;19952;-72
2023/03/09 08:59:22;;;;;;;50.50;35.03;;;;;;;2.53;100.00;99624.56;5263067;28;20067;-72
2023/03/09 09:01:54;;;;;;;51.53;35.50;;;;;;;2.43;100.00;99616.84;5262913;28;20039;-72
2023/03/09 09:04:26;;;;;;;48.03;33.57;;;;;;;2.35;100.00;99619.38;5263122;28;20151;-73
2023/03/09 09:06:57;;;;;;;50.00;36.33;;;;;;;2.41;100.00;99627.13;5261729;28;20025;-73
2023/03/09 09:09:28;;;;;;;43.93;32.17;;;;;;;2.42;100.00;99630.56;5262557;28;20059;-73
2023/03/09 09:12:00;;;;;;;47.37;33.90;;;;;;;2.27;100.00;99636.50;5262817;28;20091;-72
2023/03/09 09:14:32;;;;;;;52.60;36.07;;;;;;;2.08;100.00;99640.78;5263032;28;20029;-73
2023/03/09 09:17:06;;;;;;;48.58;34.42;;;;;;;1.97;100.00;99649.28;5261961;28;20043;-72
2023/03/09 09:19:39;;;;;;;47.85;34.92;;;;;;;1.75;100.00;99653.47;5262704;28;20353;-72
2023/03/09 09:22:10;;;;;;;52.83;36.60;;;;;;;1.94;100.00;99633.84;5262736;28;20423;-72
2023/03/09 09:24:42;;;;;;;50.27;35.13;;;;;;;1.97;100.00;99623.59;5261144;28;20088;-71
2023/03/09 09:27:13;;;;;;;48.33;36.13;;;;;;;2.17;100.00;99635.63;5262193;28;20581;-70
2023/03/09 09:29:45;;;;;;;52.67;37.13;;;;;;;2.26;100.00;99639.97;5261398;28;20029;-71
2023/03/09 09:32:16;;;;;;;53.37;36.67;;;;;;;2.36;100.00;99646.84;5262414;28;20138;-72
2023/03/09 09:34:48;;;;;;;49.77;36.53;;;;;;;2.40;100.00;99639.97;5262565;28;20033;-71
2023/03/09 09:37:19;;;;;;;49.57;35.37;;;;;;;2.46;100.00;99651.13;5262453;28;20032;-72
2023/03/09 09:39:51;;;;;;;49.20;36.03;;;;;;;2.49;100.00;99665.72;5260910;28;20029;-72
2023/03/09 09:42:43;;;;;;;48.23;34.73;;;;;;;2.53;100.00;99668.31;5262321;28;20043;-73
2023/03/09 09:45:35;;;;;;;49.42;36.28;;;;;;;2.53;100.00;99670.88;5262505;28;20029;-70
2023/03/09 09:48:10;;;;;;;52.45;36.80;;;;;;;2.48;100.00;99664.00;5261696;28;20029;-72
2023/03/09 09:51:21;;;;;;;55.15;36.75;;;;;;;2.58;100.00;99658.03;5262155;28;20548;-72
2023/03/09 09:54:11;;;;;;;52.47;36.75;;;;;;;2.60;100.00;99660.59;5252789;28;20044;-72
2023/03/09 09:56:55;;;;;;;50.72;36.70;;;;;;;2.56;100.00;99667.47;5262134;28;20388;-72
2023/03/09 09:59:42;;;;;;;46.55;35.08;;;;;;;2.68;100.00;99661.47;5264478;28;20041;-72
2023/03/09 10:02:34;;;;;;;50.45;36.38;;;;;;;2.71;100.00;99666.63;5265954;28;20029;-73
2023/03/09 10:05:33;;;;;;;46.40;34.67;;;;;;;2.74;100.00;99664.06;5264940;28;20020;-72
2023/03/09 10:08:26;;;;;;;49.15;34.00;;;;;;;2.74;100.00;99654.63;5266047;28;20033;-73
2023/03/09 10:11:07;;;;;;;53.30;35.10;;;;;;;2.77;100.00;99664.06;5265838;28;20040;-72
2023/03/09 10:13:44;;;;;;;50.75;35.75;;;;;;;2.76;100.00;99664.06;5266224;28;20099;-72
2023/03/09 10:16:22;;;;;;;45.80;32.92;;;;;;;2.84;100.00;99672.66;5264878;28;20041;-72
2023/03/09 10:18:58;;;;;;;47.35;35.05;;;;;;;2.90;100.00;99670.94;5265268;28;20090;-73
2023/03/09 10:21:46;;;;;;;48.85;36.10;;;;;;;3.14;100.00;99665.75;5265690;28;20099;-72
2023/03/09 10:24:24;;;;;;;45.10;33.13;;;;;;;3.29;100.00;99668.34;5265570;28;20102;-72
2023/03/09 10:27:14;;;;;;;45.08;32.28;;;;;;;3.61;100.00;99667.44;5265912;28;20064;-72
2023/03/09 10:29:54;;;;;;;46.08;34.03;;;;;;;3.60;100.00;99661.41;5266182;28;20460;-73
2023/03/09 10:32:40;;;;;;;42.88;31.95;;;;;;;4.07;100.00;99669.00;5265684;28;20037;-72
2023/03/09 10:35:41;;;;;;;45.33;32.85;;;;;;;4.34;100.00;99662.84;5265735;28;20128;-72
2023/03/09 10:38:15;;;;;;;47.42;32.42;;;;;;;4.24;100.00;99663.78;5265159;28;20024;-72
2023/03/09 10:40:49;;;;;;;40.95;31.40;;;;;;;3.94;100.00;99663.88;5265604;28;20476;-72
2023/03/09 10:43:29;;;;;;;41.30;29.88;;;;;;;4.10;100.00;99671.56;5265503;28;20035;-72
2023/03/09 10:46:17;;;;;;;41.88;31.70;;;;;;;3.98;100.00;99675.91;5265402;28;20119;-71
2023/03/09 10:48:51;;;;;;;36.55;29.60;;;;;;;3.89;100.00;99667.34;5263607;28;20021;-71
2023/03/09 10:51:49;;;;;;;41.92;30.95;;;;;;;3.99;100.00;99684.47;5265156;28;20472;-71
2023/03/09 10:54:27;;;;;;;37.90;30.13;;;;;;;4.00;99.14;99681.06;5264735;28;20492;-71
2023/03/09 10:56:58;;;;;;;38.85;29.25;;;;;;;4.04;100.00;99671.56;5265140;28;20116;-71
2023/03/09 10:59:30;;;;;;;41.20;29.90;;;;;;;4.17;100.00;99668.06;5265143;28;20556;-71
2023/03/09 11:02:26;;;;;;;40.73;31.23;;;;;;;4.41;100.00;99671.41;5264955;28;20115;-71
2023/03/09 11:04:58;;;;;;;44.72;33.28;;;;;;;4.56;100.00;99667.00;5265111;28;20029;-72
2023/03/09 11:07:31;;;;;;;47.00;33.23;;;;;;;4.67;100.00;99663.50;5264763;28;20417;-72
2023/03/09 11:10:20;;;;;;;45.10;33.72;;;;;;;4.58;100.00;99677.31;5264444;28;20533;-71
2023/03/09 11:12:53;;;;;;;46.00;32.50;;;;;;;4.43;100.00;99678.28;5264901;28;20028;-71
2023/03/09 11:15:33;;;;;;;40.45;31.63;;;;;;;4.41;100.00;99681.72;5264737;28;20088;-72
2023/03/09 11:18:29;;;;;;;41.08;31.58;;;;;;;4.45;100.00;99675.69;5264266;28;20099;-72
2023/03/09 11:21:00;;;;;;;44.22;32.95;;;;;;;4.44;100.00;99669.66;5263406;28;20544;-71
2023/03/09 11:23:55;;;;;;;45.80;32.87;;;;;;;4.61;100.00;99666.13;5264569;28;20052;-72
2023/03/09 11:27:04;;;;;;;42.70;32.78;;;;;;;4.60;100.00;99665.25;5255205;28;20045;-72
2023/03/09 11:30:06;;;;;;;43.55;31.63;;;;;;;4.58;100.00;99656.69;5257264;28;20049;-72
2023/03/09 11:32:38;;;;;;;40.80;30.53;;;;;;;4.47;100.00;99666.22;5263266;28;20045;-72
2023/03/09 11:35:14;;;;;;;40.23;31.07;;;;;;;4.33;100.00;99661.13;5264468;28;20321;-72
2023/03/09 11:37:58;;;;;;;40.88;30.70;;;;;;;4.43;100.00;99669.66;5265702;28;20416;-73
2023/03/09 11:40:33;;;;;;;41.42;30.38;;;;;;;4.31;100.00;99652.53;5274190;28;20029;-72
2023/03/09 11:43:13;;;;;;;44.30;32.22;;;;;;;4.41;100.00;99655.91;5274272;28;20025;-72
2023/03/09 11:45:45;;;;;;;44.80;32.97;;;;;;;4.45;100.00;99661.06;5268870;28;20055;-72
2023/03/09 11:48:29;;;;;;;42.40;30.77;;;;;;;4.47;100.00;99671.38;5264126;28;20037;-71
2023/03/09 11:51:01;;;;;;;45.90;31.73;;;;;;;4.25;100.00;99673.19;5264350;28;20104;-72